createdAt,value
2018-04-28T00:02:18.543Z,4.30
2018-04-28T00:04:46.042Z,2.83
2018-04-28T00:07:13.511Z,2.70
2018-04-28T00:09:40.994Z,3.87
2018-04-28T00:12:08.473Z,3.43
2018-04-28T00:14:35.948Z,3.23
2018-04-28T00:17:04.062Z,4.17
2018-04-28T00:19:31.561Z,3.60
2018-04-28T00:22:02.010Z,5.17
2018-04-28T00:24:45.207Z,2.63
2018-04-28T00:27:12.694Z,5.60
2018-04-28T00:29:43.543Z,3.83
2018-04-28T00:32:11.022Z,5.10
2018-04-28T00:34:42.470Z,3.03
2018-04-28T00:37:14.344Z,5.90
2018-04-28T00:42:44.940Z,3.60
2018-04-28T00:45:14.016Z,4.67
2018-04-28T00:47:42.538Z,3.87
2018-04-28T00:50:19.950Z,4.43
2018-04-28T00:52:47.439Z,2.77
2018-04-28T00:55:17.715Z,4.73
2018-04-28T01:01:09.086Z,4.87
2018-04-28T01:03:44.498Z,6.57
2018-04-28T01:06:12.067Z,5.57
2018-04-28T01:08:40.443Z,3.93
2018-04-28T01:11:13.586Z,4.00
2018-04-28T01:13:41.054Z,6.13
2018-04-28T01:16:08.544Z,3.70
2018-04-28T01:18:48.014Z,5.33
2018-04-28T01:21:34.259Z,3.87
2018-04-28T01:24:09.611Z,6.90
2018-04-28T01:30:04.916Z,5.07
2018-04-28T01:35:52.755Z,5.47
2018-04-28T01:38:21.722Z,5.77
2018-04-28T01:40:49.187Z,4.40
2018-04-28T01:46:21.804Z,4.17
2018-04-28T01:48:51.915Z,4.00
2018-04-28T01:54:36.911Z,3.57
2018-04-28T01:57:19.137Z,4.60
2018-04-28T01:59:54.339Z,4.53
2018-04-28T02:02:22.559Z,4.67
2018-04-28T02:04:57.643Z,2.60
2018-04-28T02:07:25.795Z,5.30
2018-04-28T02:09:53.262Z,4.87
2018-04-28T02:12:31.376Z,9.63
2018-04-28T02:15:06.583Z,6.43
2018-04-28T02:17:47.523Z,5.87
2018-04-28T02:23:35.816Z,5.90
2018-04-28T02:26:09.739Z,3.10
2018-04-28T02:28:47.451Z,4.93
2018-04-28T02:34:38.612Z,4.53
2018-04-28T02:40:11.854Z,5.37
2018-04-28T02:42:42.163Z,5.63
2018-04-28T02:45:16.239Z,5.87
2018-04-28T02:47:46.432Z,5.93
2018-04-28T02:50:13.922Z,3.87
2018-04-28T02:55:49.143Z,6.87
2018-04-28T02:58:32.435Z,8.03
2018-04-28T03:07:07.687Z,7.90
2018-04-28T03:09:35.175Z,8.13
2018-04-28T03:12:03.443Z,5.00
2018-04-28T03:14:31.847Z,5.77
2018-04-28T03:17:00.794Z,3.87
2018-04-28T03:19:30.625Z,5.40
2018-04-28T03:21:58.918Z,7.23
2018-04-28T03:27:30.522Z,8.00
2018-04-28T03:30:03.904Z,5.50
2018-04-28T03:32:37.946Z,5.17
2018-04-28T03:35:08.194Z,7.57
2018-04-28T03:37:39.140Z,7.10
2018-04-28T03:40:09.984Z,11.27
2018-04-28T03:45:39.991Z,6.83
2018-04-28T03:48:10.291Z,5.40
2018-04-28T03:50:37.789Z,6.03
2018-04-28T03:53:24.983Z,5.80
2018-04-28T03:55:53.915Z,5.00
2018-04-28T03:58:33.144Z,9.20
2018-04-28T04:01:12.492Z,4.70
2018-04-28T04:03:51.863Z,5.17
2018-04-28T04:06:21.135Z,5.27
2018-04-28T04:08:49.402Z,7.47
2018-04-28T04:14:30.820Z,6.07
2018-04-28T04:20:18.418Z,5.73
2018-04-28T04:22:55.909Z,6.03
2018-04-28T04:25:31.325Z,6.23
2018-04-28T04:28:06.634Z,4.20
2018-04-28T04:30:50.758Z,4.80
2018-04-28T04:36:16.995Z,6.20
2018-04-28T04:38:46.382Z,4.73
2018-04-28T04:44:44.166Z,4.50
2018-04-28T04:50:53.358Z,6.57
2018-04-28T04:53:32.698Z,5.23
2018-04-28T04:56:21.776Z,8.87
2018-04-28T04:59:04.149Z,4.50
2018-04-28T05:04:49.278Z,7.83
2018-04-28T05:07:22.654Z,7.33
2018-04-28T05:10:00.114Z,8.57
2018-04-28T05:12:29.510Z,9.53
2018-04-28T05:15:08.890Z,6.80
2018-04-28T05:17:39.810Z,10.10
2018-04-28T05:20:19.036Z,13.10
2018-04-28T05:22:56.446Z,8.93
2018-04-28T05:25:31.734Z,8.10
2018-04-28T05:28:05.890Z,7.67
2018-04-28T05:30:37.850Z,7.07
2018-04-28T05:33:17.186Z,14.10
2018-04-28T05:36:06.358Z,10.63
2018-04-28T05:38:55.657Z,6.23
2018-04-28T05:41:35.064Z,8.63
2018-04-28T05:44:14.405Z,8.00
2018-04-28T05:50:07.365Z,11.20
2018-04-28T05:52:46.686Z,7.23
2018-04-28T05:55:25.758Z,7.50
2018-04-28T06:00:54.924Z,9.80
2018-04-28T06:06:26.958Z,11.83
2018-04-28T06:09:00.947Z,14.87
2018-04-28T06:11:33.786Z,14.50
2018-04-28T06:14:13.409Z,11.17
2018-04-28T06:16:43.866Z,17.20
2018-04-28T06:19:22.143Z,11.77
2018-04-28T06:21:49.804Z,11.33
2018-04-28T06:24:17.299Z,8.90
2018-04-28T06:26:44.759Z,11.83
2018-04-28T06:29:12.295Z,16.23
2018-04-28T06:31:39.766Z,11.00
2018-04-28T06:34:07.249Z,10.33
2018-04-28T06:36:34.714Z,11.30
2018-04-28T06:39:02.194Z,11.83
2018-04-28T06:41:29.662Z,13.67
2018-04-28T06:43:57.188Z,10.30
2018-04-28T06:46:24.703Z,15.57
2018-04-28T06:48:52.251Z,10.20
2018-04-28T06:51:19.746Z,12.20
2018-04-28T06:53:47.236Z,15.57
2018-04-28T06:56:14.710Z,11.33
2018-04-28T06:58:42.231Z,9.87
2018-04-28T07:01:09.706Z,8.13
2018-04-28T07:03:37.230Z,10.13
2018-04-28T07:06:04.698Z,11.37
2018-04-28T07:08:32.182Z,9.03
2018-04-28T07:10:59.674Z,12.20
2018-04-28T07:13:27.138Z,11.37
2018-04-28T07:15:54.634Z,11.17
2018-04-28T07:18:22.163Z,12.47
2018-04-28T07:20:49.670Z,10.30
2018-04-28T07:23:17.161Z,11.50
2018-04-28T07:25:44.654Z,11.60
2018-04-28T07:28:12.153Z,11.97
2018-04-28T07:30:39.638Z,16.20
2018-04-28T07:33:07.119Z,12.30
2018-04-28T07:35:34.621Z,12.23
2018-04-28T07:38:02.190Z,10.00
2018-04-28T07:40:29.674Z,10.83
2018-04-28T07:42:57.135Z,10.03
2018-04-28T07:45:24.630Z,10.97
2018-04-28T07:47:52.110Z,10.17
2018-04-28T07:50:19.599Z,10.20
2018-04-28T07:52:47.085Z,10.20
2018-04-28T07:55:14.615Z,11.30
2018-04-28T07:57:42.074Z,8.60
2018-04-28T08:00:09.590Z,12.60
2018-04-28T08:02:37.050Z,12.33
2018-04-28T08:05:04.570Z,14.63
2018-04-28T08:07:32.119Z,10.63
2018-04-28T08:09:59.615Z,9.67
2018-04-28T08:12:27.101Z,9.83
2018-04-28T08:14:54.596Z,12.40
2018-04-28T08:17:22.135Z,12.83
2018-04-28T08:19:49.674Z,8.43
2018-04-28T08:22:17.154Z,15.10
2018-04-28T08:24:45.652Z,13.50
2018-04-28T08:27:13.118Z,9.60
2018-04-28T08:29:40.586Z,13.90
2018-04-28T08:32:08.108Z,9.47
2018-04-28T08:34:35.603Z,11.03
2018-04-28T08:37:03.151Z,11.17
2018-04-28T08:39:30.598Z,13.60
2018-04-28T08:41:58.090Z,12.77
2018-04-28T08:44:25.613Z,11.13
2018-04-28T08:46:53.091Z,10.57
2018-04-28T08:49:20.570Z,11.73
2018-04-28T08:51:48.076Z,9.37
2018-04-28T08:54:15.621Z,9.20
2018-04-28T08:56:43.199Z,9.50
2018-04-28T08:59:10.627Z,8.23
2018-04-28T09:01:38.138Z,10.20
2018-04-28T09:04:05.618Z,7.20
2018-04-28T09:06:33.120Z,11.37
2018-04-28T09:09:00.602Z,12.27
2018-04-28T09:11:28.094Z,9.43
2018-04-28T09:13:55.625Z,13.23
2018-04-28T09:16:23.122Z,8.60
2018-04-28T09:18:50.584Z,9.10
2018-04-28T09:21:18.066Z,9.47
2018-04-28T09:23:45.550Z,9.73
2018-04-28T09:26:13.147Z,7.97
2018-04-28T09:28:40.598Z,15.27
2018-04-28T09:31:08.086Z,7.30
2018-04-28T09:33:35.547Z,9.23
2018-04-28T09:36:03.045Z,10.63
2018-04-28T09:38:30.516Z,9.20
2018-04-28T09:40:58.018Z,7.70
2018-04-28T09:43:25.518Z,11.83
2018-04-28T09:45:53.001Z,8.20
2018-04-28T09:48:20.470Z,11.53
2018-04-28T09:50:47.957Z,8.48
2018-04-28T09:53:15.478Z,10.53
2018-04-28T09:55:42.960Z,10.43
2018-04-28T09:58:10.507Z,10.63
2018-04-28T10:00:53.743Z,7.97
2018-04-28T10:03:22.152Z,11.48
2018-04-28T10:05:49.683Z,8.43
2018-04-28T10:08:17.181Z,7.68
2018-04-28T10:10:44.656Z,9.82
2018-04-28T10:13:12.159Z,12.15
2018-04-28T10:15:39.642Z,8.55
2018-04-28T10:18:07.158Z,10.93
2018-04-28T10:20:34.644Z,9.52
2018-04-28T10:23:02.175Z,10.85
2018-04-28T10:25:29.668Z,11.27
2018-04-28T10:27:57.161Z,8.93
2018-04-28T10:30:24.657Z,6.97
2018-04-28T10:32:52.150Z,8.98
2018-04-28T10:35:19.630Z,8.48
2018-04-28T10:37:47.136Z,7.05
2018-04-28T10:40:14.622Z,7.85
2018-04-28T10:42:42.122Z,7.28
2018-04-28T10:45:09.718Z,12.00
2018-04-28T10:47:37.246Z,6.97
2018-04-28T10:50:04.719Z,9.77
2018-04-28T10:52:32.206Z,8.52
2018-04-28T10:54:59.683Z,6.95
2018-04-28T10:57:27.360Z,8.48
2018-04-28T10:59:54.830Z,7.50
2018-04-28T11:02:22.376Z,7.57
2018-04-28T11:04:49.851Z,5.60
2018-04-28T11:07:17.451Z,7.62
2018-04-28T11:09:44.938Z,8.48
2018-04-28T11:12:12.423Z,8.50
2018-04-28T11:14:39.922Z,9.10
2018-04-28T11:17:07.419Z,5.43
2018-04-28T11:19:35.035Z,7.35
2018-04-28T11:22:02.532Z,7.07
2018-04-28T11:24:30.019Z,5.87
2018-04-28T11:26:58.534Z,4.87
2018-04-28T11:29:26.162Z,7.45
2018-04-28T11:31:56.456Z,5.72
2018-04-28T11:34:24.211Z,5.30
2018-04-28T11:36:51.743Z,8.35
2018-04-28T11:39:19.223Z,4.15
2018-04-28T11:41:46.702Z,7.32
2018-04-28T11:44:14.189Z,6.22
2018-04-28T11:46:41.697Z,7.15
2018-04-28T11:49:09.202Z,7.15
2018-04-28T11:51:36.682Z,4.10
2018-04-28T11:54:04.200Z,7.75
2018-04-28T11:56:31.668Z,5.60
2018-04-28T11:58:59.279Z,9.90
2018-04-28T12:01:26.684Z,6.05
2018-04-28T12:03:54.195Z,5.82
2018-04-28T12:06:21.670Z,6.32
2018-04-28T12:08:49.187Z,7.43
2018-04-28T12:11:16.656Z,8.60
2018-04-28T12:13:44.159Z,9.40
2018-04-28T12:16:11.629Z,7.30
2018-04-28T12:18:39.145Z,9.45
2018-04-28T12:21:06.685Z,6.97
2018-04-28T12:23:34.144Z,7.50
2018-04-28T12:26:01.616Z,5.20
2018-04-28T12:28:29.112Z,10.13
2018-04-28T12:30:56.607Z,7.00
2018-04-28T12:33:24.094Z,6.40
2018-04-28T12:35:51.563Z,9.05
2018-04-28T12:38:19.059Z,9.38
2018-04-28T12:40:46.550Z,7.05
2018-04-28T12:43:14.039Z,6.40
2018-04-28T12:45:41.517Z,5.12
2018-04-28T12:48:09.014Z,7.35
2018-04-28T12:50:36.487Z,10.07
2018-04-28T12:53:03.988Z,8.20
2018-04-28T12:55:31.455Z,6.60
2018-04-28T12:57:58.950Z,8.95
2018-04-28T13:00:26.461Z,8.65
2018-04-28T13:02:53.947Z,8.50
2018-04-28T13:05:21.425Z,6.32
2018-04-28T13:07:48.915Z,8.60
2018-04-28T13:10:16.382Z,9.35
2018-04-28T13:12:43.853Z,7.75
2018-04-28T13:15:11.338Z,9.00
2018-04-28T13:17:38.830Z,9.95
2018-04-28T13:20:06.324Z,8.70
2018-04-28T13:22:33.797Z,8.50
2018-04-28T13:25:01.313Z,7.30
2018-04-28T13:27:28.815Z,9.18
2018-04-28T13:29:56.313Z,6.62
2018-04-28T13:32:23.778Z,8.60
2018-04-28T13:34:51.288Z,7.18
2018-04-28T13:37:18.761Z,7.70
2018-04-28T13:39:46.255Z,8.32
2018-04-28T13:42:13.856Z,8.07
2018-04-28T13:44:41.348Z,7.82
2018-04-28T13:47:08.838Z,7.68
2018-04-28T13:49:36.326Z,8.48
2018-04-28T13:52:03.786Z,10.77
2018-04-28T13:54:31.288Z,9.00
2018-04-28T13:56:58.752Z,10.07
2018-04-28T13:59:26.241Z,9.73
2018-04-28T14:01:53.706Z,8.68
2018-04-28T14:04:21.195Z,8.50
2018-04-28T14:06:48.654Z,9.73
2018-04-28T14:09:16.157Z,9.65
2018-04-28T14:11:43.622Z,7.97
2018-04-28T14:14:11.139Z,8.52
2018-04-28T14:16:38.803Z,9.95
2018-04-28T14:19:06.303Z,10.43
2018-04-28T14:21:33.770Z,8.80
2018-04-28T14:24:01.285Z,9.60
2018-04-28T14:26:28.754Z,7.50
2018-04-28T14:28:56.254Z,10.48
2018-04-28T14:31:23.722Z,10.90
2018-04-28T14:33:51.241Z,8.20
2018-04-28T14:36:18.707Z,10.48
2018-04-28T14:38:46.165Z,7.45
2018-04-28T14:41:13.857Z,7.85
2018-04-28T14:43:41.313Z,9.85
2018-04-28T14:46:08.865Z,7.45
2018-04-28T14:48:36.286Z,8.70
2018-04-28T14:51:03.772Z,6.68
2018-04-28T14:53:31.238Z,11.02
2018-04-28T14:55:58.727Z,6.90
2018-04-28T14:58:26.198Z,7.12
2018-04-28T15:00:53.719Z,7.15
2018-04-28T15:03:21.206Z,12.75
2018-04-28T15:05:48.759Z,9.10
2018-04-28T15:08:16.266Z,5.93
2018-04-28T15:10:43.781Z,13.32
2018-04-28T15:13:11.465Z,11.15
2018-04-28T15:15:38.961Z,10.70
2018-04-28T15:18:06.435Z,7.95
2018-04-28T15:20:33.931Z,9.93
2018-04-28T15:23:01.412Z,11.25
2018-04-28T15:25:28.946Z,10.02
2018-04-28T15:27:56.440Z,7.72
2018-04-28T15:30:23.938Z,8.68
2018-04-28T15:32:51.434Z,8.85
2018-04-28T15:35:18.933Z,12.20
2018-04-28T15:37:46.402Z,9.98
2018-04-28T15:40:13.906Z,11.23
2018-04-28T15:42:41.387Z,5.90
2018-04-28T15:45:08.873Z,8.85
2018-04-28T15:47:36.354Z,9.32
2018-04-28T15:50:03.870Z,8.07
2018-04-28T15:52:31.370Z,11.68
2018-04-28T15:54:58.878Z,11.60
2018-04-28T15:57:26.367Z,11.23
2018-04-28T15:59:53.875Z,8.60
2018-04-28T16:02:21.355Z,10.77
2018-04-28T16:04:48.873Z,7.55
2018-04-28T16:07:16.378Z,10.50
2018-04-28T16:09:43.886Z,12.03
2018-04-28T16:12:11.380Z,10.75
2018-04-28T16:14:38.993Z,10.68
2018-04-28T16:17:06.451Z,10.97
2018-04-28T16:19:33.936Z,13.93
2018-04-28T16:22:01.458Z,12.10
2018-04-28T16:24:28.927Z,7.93
2018-04-28T16:26:56.475Z,13.03
2018-04-28T16:29:23.978Z,9.52
2018-04-28T16:31:51.484Z,11.50
2018-04-28T16:34:18.969Z,9.35
2018-04-28T16:36:46.499Z,13.50
2018-04-28T16:39:14.127Z,8.83
2018-04-28T16:41:41.594Z,13.20
2018-04-28T16:44:09.101Z,12.97
2018-04-28T16:46:36.611Z,11.27
2018-04-28T16:49:04.078Z,5.90
2018-04-28T16:51:31.574Z,8.40
2018-04-28T16:53:59.067Z,6.87
2018-04-28T16:56:26.588Z,9.10
2018-04-28T16:58:54.071Z,9.73
2018-04-28T17:01:21.625Z,7.63
2018-04-28T17:03:49.151Z,6.30
2018-04-28T17:06:16.687Z,8.00
2018-04-28T17:08:44.207Z,10.37
2018-04-28T17:11:11.750Z,7.83
2018-04-28T17:13:39.424Z,10.53
2018-04-28T17:16:07.013Z,10.37
2018-04-28T17:18:34.471Z,6.00
2018-04-28T17:21:05.624Z,7.90
2018-04-28T17:23:35.309Z,9.93
2018-04-28T17:26:03.238Z,9.00
2018-04-28T17:28:30.858Z,6.30
2018-04-28T17:30:58.378Z,6.53
2018-04-28T17:33:25.841Z,8.90
2018-04-28T17:35:53.327Z,7.27
2018-04-28T17:38:20.852Z,6.60
2018-04-28T17:40:48.380Z,10.00
2018-04-28T17:43:16.029Z,7.17
2018-04-28T17:45:43.617Z,5.70
2018-04-28T17:48:11.131Z,9.23
2018-04-28T17:50:38.680Z,10.67
2018-04-28T17:53:06.234Z,8.00
2018-04-28T17:55:33.714Z,7.07
2018-04-28T17:58:01.223Z,6.03
2018-04-28T18:00:28.720Z,6.03
2018-04-28T18:02:56.268Z,4.30
2018-04-28T18:05:23.722Z,11.40
2018-04-28T18:07:51.248Z,10.93
2018-04-28T18:10:18.750Z,6.83
2018-04-28T18:12:46.289Z,8.57
2018-04-28T18:15:13.775Z,5.87
2018-04-28T18:17:41.366Z,7.07
2018-04-28T18:20:08.826Z,8.87
2018-04-28T18:22:36.369Z,8.50
2018-04-28T18:25:03.850Z,6.03
2018-04-28T18:27:31.352Z,8.30
2018-04-28T18:29:58.846Z,8.53
2018-04-28T18:32:26.354Z,7.17
2018-04-28T18:34:53.846Z,8.73
2018-04-28T18:37:21.347Z,5.77
2018-04-28T18:39:48.818Z,4.80
2018-04-28T18:42:16.318Z,5.60
2018-04-28T18:44:43.807Z,7.20
2018-04-28T18:47:11.318Z,10.07
2018-04-28T18:49:38.782Z,7.83
2018-04-28T18:52:06.288Z,6.80
2018-04-28T18:54:33.766Z,5.13
2018-04-28T18:57:01.273Z,7.93
2018-04-28T18:59:28.766Z,5.87
2018-04-28T19:01:56.254Z,4.77
2018-04-28T19:04:23.730Z,8.00
2018-04-28T19:06:51.239Z,7.60
2018-04-28T19:09:18.762Z,11.20
2018-04-28T19:11:46.272Z,7.40
2018-04-28T19:14:13.805Z,7.10
2018-04-28T19:16:41.271Z,6.93
2018-04-28T19:19:08.769Z,8.93
2018-04-28T19:21:36.260Z,9.97
2018-04-28T19:24:03.785Z,7.57
2018-04-28T19:26:31.289Z,11.33
2018-04-28T19:28:58.792Z,8.33
2018-04-28T19:31:26.290Z,6.37
2018-04-28T19:33:53.790Z,5.73
2018-04-28T19:36:21.311Z,8.83
2018-04-28T19:38:48.806Z,6.10
2018-04-28T19:41:16.291Z,7.40
2018-04-28T19:43:43.782Z,8.57
2018-04-28T19:46:11.260Z,9.03
2018-04-28T19:48:38.778Z,9.50
2018-04-28T19:51:06.241Z,11.00
2018-04-28T19:53:33.758Z,6.50
2018-04-28T19:56:01.234Z,7.23
2018-04-28T19:58:28.768Z,7.90
2018-04-28T20:00:56.282Z,10.00
2018-04-28T20:03:23.766Z,11.93
2018-04-28T20:05:51.247Z,8.83
2018-04-28T20:08:18.760Z,10.07
2018-04-28T20:10:46.227Z,9.00
2018-04-28T20:13:13.710Z,7.40
2018-04-28T20:15:41.183Z,20.90
2018-04-28T20:18:08.698Z,18.27
2018-04-28T20:20:36.205Z,16.03
2018-04-28T20:23:15.667Z,11.23
2018-04-28T20:25:43.192Z,11.03
2018-04-28T20:28:10.718Z,13.90
2018-04-28T20:30:39.985Z,13.53
2018-04-28T20:33:10.422Z,15.23
2018-04-28T20:35:38.002Z,15.60
2018-04-28T20:38:05.481Z,15.77
2018-04-28T20:40:32.946Z,13.37
2018-04-28T20:43:00.480Z,11.13
2018-04-28T20:45:27.942Z,11.97
2018-04-28T20:47:55.425Z,15.33
2018-04-28T20:50:22.889Z,15.67
2018-04-28T20:52:50.386Z,15.53
2018-04-28T20:55:17.858Z,11.00
2018-04-28T20:57:45.322Z,11.83
2018-04-28T21:00:12.805Z,9.40
2018-04-28T21:02:40.291Z,10.93
2018-04-28T21:05:07.778Z,14.87
2018-04-28T21:07:35.245Z,11.20
2018-04-28T21:10:02.754Z,9.23
2018-04-28T21:12:30.214Z,9.97
2018-04-28T21:14:57.734Z,7.93
2018-04-28T21:17:25.200Z,9.00
2018-04-28T21:19:52.691Z,16.37
2018-04-28T21:22:20.158Z,14.90
2018-04-28T21:24:47.682Z,13.47
2018-04-28T21:27:15.139Z,11.60
2018-04-28T21:29:42.947Z,11.23
2018-04-28T21:32:10.656Z,11.40
2018-04-28T21:34:38.137Z,9.97
2018-04-28T21:37:05.610Z,15.47
2018-04-28T21:39:33.106Z,12.20
2018-04-28T21:42:00.579Z,14.10
2018-04-28T21:44:28.071Z,14.17
2018-04-28T21:46:55.533Z,10.47
2018-04-28T21:49:23.048Z,13.07
2018-04-28T21:51:50.542Z,13.70
2018-04-28T21:54:18.051Z,9.67
2018-04-28T21:56:45.518Z,12.13
2018-04-28T21:59:13.024Z,10.73
2018-04-28T22:01:40.490Z,8.07
2018-04-28T22:04:07.973Z,9.83
2018-04-28T22:06:35.508Z,8.47
2018-04-28T22:09:02.989Z,10.73
2018-04-28T22:11:30.461Z,7.77
2018-04-28T22:13:57.957Z,13.07
2018-04-28T22:16:25.422Z,9.43
2018-04-28T22:18:52.903Z,7.93
2018-04-28T22:21:20.362Z,5.53
2018-04-28T22:23:47.820Z,7.13
2018-04-28T22:26:15.302Z,5.07
2018-04-28T22:28:42.775Z,8.27
2018-04-28T22:31:10.398Z,7.57
2018-04-28T22:33:37.873Z,9.07
2018-04-28T22:36:05.367Z,7.93
2018-04-28T22:38:32.833Z,10.07
2018-04-28T22:41:00.346Z,10.23
2018-04-28T22:43:27.822Z,7.23
2018-04-28T22:45:57.995Z,8.90
2018-04-28T22:48:25.826Z,8.13
2018-04-28T22:50:53.430Z,6.00
2018-04-28T22:53:20.886Z,8.70
2018-04-28T22:55:48.371Z,8.10
2018-04-28T22:58:15.837Z,11.33
2018-04-28T23:00:43.346Z,7.13
2018-04-28T23:03:11.155Z,5.87
2018-04-28T23:05:38.678Z,8.40
2018-04-28T23:08:06.139Z,9.30
2018-04-28T23:10:33.626Z,8.37
2018-04-28T23:13:01.090Z,9.50
2018-04-28T23:15:28.583Z,10.00
2018-04-28T23:17:56.050Z,13.77
2018-04-28T23:20:23.539Z,6.07
2018-04-28T23:22:50.995Z,6.60
2018-04-28T23:25:18.480Z,9.47
2018-04-28T23:27:45.955Z,10.53
2018-04-28T23:30:13.446Z,5.77
2018-04-28T23:32:40.906Z,8.70
2018-04-28T23:35:08.394Z,9.77
2018-04-28T23:37:35.860Z,12.30
2018-04-28T23:40:03.362Z,6.63
2018-04-28T23:42:30.827Z,5.83
2018-04-28T23:44:58.317Z,10.43
2018-04-28T23:47:25.776Z,6.77
2018-04-28T23:49:53.262Z,13.47
2018-04-28T23:52:20.728Z,8.77
2018-04-28T23:54:48.206Z,11.17
2018-04-28T23:57:15.687Z,9.50
2018-04-28T23:59:43.143Z,8.10
